logo
Rechercher aéroport 
image banner adimage banner adimage banner ad
image banner ad

KIPL - Imperial County

Situé à Imperial, United States

ICAO - IPL, IATA - IPL

Données fournies par Airmate  

Information générale

Coordonnées: N32°50'3" W115°34'44"
Élévation : -53 feet MSL.
Variation magnétique : 14° East
Voir autres Aéroports à California

Données opérationnelles

Special qualification required
Heure actuelle UTC:
Heure actuelle locale:
Météo
METAR: KIPL 130553Z AUTO 27006KT 10SM CLR 27/19 A2980 RMK AO2 RAB05E15 SLP091 P0000 60000 T02670194 10322 20267 51003
TAF: KIPL 011120Z 0112/0212 14006KT P6SM SKC FM012100 16009KT P6SM FEW100 FEW250 FM020700 13005KT P6SM SKC
Voir NOTAMs / SUP AIP / TFR affectant cet aéroport [VIEW]
Fréquences de communication: [VIEW]

Pistes:

Identifiant RWYQFULongueur (ft)Largeur (ft)SurfaceLDA (ft)
0890°450175ASPH4501
26270°450175ASPH4501
14153°5308100ASPH5304
32333°5308100ASPH5304

Coordonnées de l'aéroport

Adresse: Imperial United States

Autres services d'aviation

Écoles de pilotage

Imperial Sky Aviation, Llc

Imperial Sky Aviation, Llc

Vue satellite de KIPL